Terminal Aerodrome Forecast
Issued by NWS

Home | Current Version | Previous Version | Text Only | Print | Product List | Glossary On
Versions: 1 2 3 4 5 6 7 8 9 10 11 12 13 14 15 16 17 18 19 20 21
440
FTPA31 PHFO 240319 AAA
TAFHTO
TAF AMD
PHTO 240319Z 2403/2424 VRB06KT P6SM -SHRA BKN025 OVC035
     FM242000 09009KT P6SM VCSH BKN035 BKN050=

USA.gov is the U.S. government's official web portal to all federal, state and local government web resources and services.